FDST

Siteki Airport

Siteki, Swaziland
METAR FDST 232200Z AUTO 08003G16KT //// // ////// 20/19 Q1010
Observed Flight Rules
Feb-23 @ 22:00 UTC (38 minutes ago)
Wind
80° at 3 knots
 Gusting to 16 knots
Temperatures Readings
Current 20°C / 68°F
Dewpoint 19°C / 66°F
Humidity 94%
Altimeter 29.82" Hg
Pressure 1010 hPa
Elevation 667
METAR FDST 232200Z AUTO 08003G16KT //// // ////// 20/19 Q1010
Observed Flight Rules
Feb-23 @ 22:00 UTC
(38 minutes ago)
Wind
80° at 3 knots
 Gusting to 16 knots
Temperature Dewpoint
20°C / 68°F 19°C / 66°F
Humidity Altimeter Pressure
94% 29.82" Hg 1010 hPa